createdAt,value
2019-01-11T00:00:22.396Z,0.95
2019-01-11T00:02:55.613Z,1.04
2019-01-11T00:05:27.250Z,1.01
2019-01-11T00:07:58.839Z,1.09
2019-01-11T00:10:30.453Z,1.06
2019-01-11T00:13:02.128Z,1.02
2019-01-11T00:15:33.930Z,1.08
2019-01-11T00:18:05.664Z,0.85
2019-01-11T00:20:37.300Z,0.89
2019-01-11T00:23:09.016Z,0.84
2019-01-11T00:25:40.662Z,0.93
2019-01-11T00:28:12.368Z,0.87
2019-01-11T00:30:43.989Z,1.02
2019-01-11T00:33:15.600Z,0.87
2019-01-11T00:35:47.232Z,0.90
2019-01-11T00:38:19.101Z,0.95
2019-01-11T00:40:50.717Z,1.10
2019-01-11T00:43:22.301Z,1.33
2019-01-11T00:45:54.274Z,0.93
2019-01-11T00:48:25.921Z,0.98
2019-01-11T00:50:57.584Z,1.04
2019-01-11T00:53:29.163Z,1.10
2019-01-11T00:56:00.705Z,1.01
2019-01-11T00:58:32.284Z,0.87
2019-01-11T01:01:03.908Z,1.03
2019-01-11T01:03:35.625Z,0.83
2019-01-11T01:06:07.670Z,0.89
2019-01-11T01:08:39.408Z,0.66
2019-01-11T01:11:11.050Z,0.91
2019-01-11T01:13:42.695Z,1.12
2019-01-11T01:16:14.354Z,0.68
2019-01-11T01:18:45.940Z,1.03
2019-01-11T01:21:17.727Z,0.91
2019-01-11T01:23:49.321Z,1.03
2019-01-11T01:26:20.971Z,0.99
2019-01-11T01:28:52.559Z,0.79
2019-01-11T01:31:24.343Z,0.92
2019-01-11T01:33:56.032Z,0.95
2019-01-11T01:36:27.734Z,0.57
2019-01-11T01:38:59.312Z,0.86
2019-01-11T01:41:30.939Z,0.74
2019-01-11T01:44:02.513Z,0.72
2019-01-11T01:46:34.128Z,0.81
2019-01-11T01:49:05.819Z,0.75
2019-01-11T01:51:37.488Z,0.72
2019-01-11T01:54:09.105Z,0.57
2019-01-11T01:56:40.811Z,0.85
2019-01-11T01:59:12.797Z,0.66
2019-01-11T02:01:45.588Z,0.89
2019-01-11T02:04:17.183Z,0.82
2019-01-11T02:06:48.872Z,0.71
2019-01-11T02:09:20.507Z,0.80
2019-01-11T02:11:52.077Z,0.54
2019-01-11T02:14:23.733Z,0.75
2019-01-11T02:16:55.396Z,0.93
2019-01-11T02:19:32.746Z,0.82
2019-01-11T02:22:00.424Z,0.70
2019-01-11T02:24:32.028Z,0.81
2019-01-11T02:27:03.642Z,0.53
2019-01-11T02:29:35.226Z,0.48
2019-01-11T02:32:06.916Z,0.16
2019-01-11T02:34:38.530Z,0.56
2019-01-11T02:37:10.196Z,0.69
2019-01-11T02:39:41.810Z,0.38
2019-01-11T02:42:13.515Z,0.43
2019-01-11T02:44:45.117Z,0.40
2019-01-11T02:47:17.862Z,0.52
2019-01-11T02:49:49.463Z,0.51
2019-01-11T02:52:22.138Z,0.21
2019-01-11T02:54:53.753Z,0.16
2019-01-11T02:57:25.344Z,0.00
2019-01-11T02:59:57.143Z,-0.02
2019-01-11T03:02:33.180Z,0.01
2019-01-11T03:05:05.469Z,-0.05
2019-01-11T03:07:37.133Z,-0.06
2019-01-11T03:10:14.102Z,-0.07
2019-01-11T03:12:45.699Z,-0.06
2019-01-11T03:15:17.780Z,-0.21
2019-01-11T03:17:49.406Z,0.10
2019-01-11T03:20:21.788Z,-0.12
2019-01-11T03:22:53.392Z,-0.23
2019-01-11T03:25:24.980Z,-0.25
2019-01-11T03:27:56.564Z,-0.19
2019-01-11T03:30:28.166Z,-0.08
2019-01-11T03:32:59.832Z,-0.18
2019-01-11T03:35:31.447Z,-0.16
2019-01-11T03:38:03.149Z,-0.24
2019-01-11T03:40:34.703Z,-0.42
2019-01-11T03:43:06.311Z,-0.31
2019-01-11T03:45:38.021Z,-0.40
2019-01-11T03:48:09.632Z,-0.41
2019-01-11T03:50:41.288Z,-0.33
2019-01-11T03:53:12.882Z,-0.29
2019-01-11T03:55:44.875Z,-0.15
2019-01-11T03:58:17.536Z,-0.13
2019-01-11T04:00:49.200Z,-0.35
2019-01-11T04:03:20.836Z,-0.11
2019-01-11T04:05:52.429Z,-0.19
2019-01-11T04:08:24.014Z,0.03
2019-01-11T04:10:55.609Z,0.05
2019-01-11T04:13:30.603Z,0.19
2019-01-11T04:16:00.612Z,0.05
2019-01-11T04:18:33.860Z,-0.01
2019-01-11T04:21:05.439Z,-0.22
2019-01-11T04:23:37.226Z,-0.04
2019-01-11T04:26:08.926Z,-0.17
2019-01-11T04:28:40.515Z,-0.55
2019-01-11T04:31:12.084Z,-0.51
2019-01-11T04:33:43.671Z,-0.64
2019-01-11T04:36:15.265Z,-0.76
2019-01-11T04:38:46.847Z,-0.84
2019-01-11T04:41:18.461Z,-1.05
2019-01-11T04:43:50.017Z,-1.15
2019-01-11T04:46:21.689Z,-1.08
2019-01-11T04:48:53.252Z,-1.09
2019-01-11T04:51:24.854Z,-1.16
2019-01-11T04:53:56.544Z,-1.22
2019-01-11T04:56:28.133Z,-1.38
2019-01-11T04:58:59.746Z,-1.27
2019-01-11T05:01:31.323Z,-1.19
2019-01-11T05:04:02.961Z,-1.23
2019-01-11T05:06:34.553Z,-1.17
2019-01-11T05:09:08.104Z,-1.11
2019-01-11T05:11:39.868Z,-1.07
2019-01-11T05:14:11.474Z,-1.10
2019-01-11T05:16:43.148Z,-1.08
2019-01-11T05:19:14.729Z,-1.19
2019-01-11T05:21:46.331Z,-1.19
2019-01-11T05:24:18.007Z,-1.20
2019-01-11T05:26:49.632Z,-1.23
2019-01-11T05:29:21.247Z,-1.25
2019-01-11T05:31:52.870Z,-1.30
2019-01-11T05:34:24.533Z,-1.35
2019-01-11T05:36:56.199Z,-1.34
2019-01-11T05:39:27.867Z,-1.42
2019-01-11T05:41:59.446Z,-1.45
2019-01-11T05:44:31.028Z,-1.44
2019-01-11T05:47:02.706Z,-1.44
2019-01-11T05:49:34.313Z,-1.33
2019-01-11T05:52:05.925Z,-1.41
2019-01-11T05:54:37.536Z,-1.18
2019-01-11T05:57:09.251Z,-1.08
2019-01-11T05:59:40.843Z,-1.13
2019-01-11T06:02:12.532Z,-1.33
2019-01-11T06:04:53.290Z,-1.43
2019-01-11T06:07:31.147Z,-1.28
2019-01-11T06:10:03.155Z,-1.11
2019-01-11T06:12:35.094Z,-1.22
2019-01-11T06:15:07.680Z,-1.39
2019-01-11T06:17:39.472Z,-1.33
2019-01-11T06:20:15.495Z,-1.20
2019-01-11T06:22:47.076Z,-1.38
2019-01-11T06:25:18.746Z,-1.29
2019-01-11T06:27:50.334Z,-1.20
2019-01-11T06:30:22.042Z,-1.21
2019-01-11T06:32:53.659Z,-1.21
2019-01-11T06:35:25.287Z,-1.21
2019-01-11T06:37:57.134Z,-1.12
2019-01-11T06:40:28.892Z,-1.14
2019-01-11T06:43:03.691Z,-0.90
2019-01-11T06:45:33.966Z,-0.89
2019-01-11T06:48:07.283Z,-0.90
2019-01-11T06:50:38.883Z,-0.69
2019-01-11T06:53:10.465Z,-0.74
2019-01-11T06:55:42.057Z,-0.84
2019-01-11T06:58:16.554Z,-0.69
2019-01-11T07:00:48.962Z,-0.86
2019-01-11T07:03:21.761Z,-0.68
2019-01-11T07:05:53.768Z,-0.71
2019-01-11T07:08:25.494Z,-0.60
2019-01-11T07:10:57.194Z,-0.72
2019-01-11T07:13:28.920Z,-0.63
2019-01-11T07:16:00.694Z,-0.48
2019-01-11T07:18:32.299Z,-0.64
2019-01-11T07:21:04.035Z,-0.52
2019-01-11T07:23:35.745Z,-0.49
2019-01-11T07:26:07.455Z,-0.60
2019-01-11T07:28:39.326Z,-0.61
2019-01-11T07:31:12.873Z,-0.52
2019-01-11T07:33:44.548Z,-0.64
2019-01-11T07:36:41.192Z,-0.43
2019-01-11T07:39:31.895Z,-0.46
2019-01-11T07:42:08.227Z,-0.48
2019-01-11T07:44:39.935Z,-0.42
2019-01-11T07:47:11.669Z,-0.36
2019-01-11T07:49:43.282Z,-0.49
2019-01-11T07:52:15.022Z,-0.38
2019-01-11T07:54:46.604Z,-0.36
2019-01-11T07:57:18.249Z,-0.42
2019-01-11T07:59:49.925Z,-0.47
2019-01-11T08:02:21.565Z,-0.27
2019-01-11T08:04:53.367Z,-0.51
2019-01-11T08:07:25.060Z,-0.49
2019-01-11T08:09:56.700Z,-0.52
2019-01-11T08:12:28.354Z,-0.53
2019-01-11T08:14:59.983Z,-0.51
2019-01-11T08:17:31.602Z,-0.45
2019-01-11T08:20:03.251Z,-0.40
2019-01-11T08:22:40.629Z,-0.46
2019-01-11T08:25:13.576Z,-0.33
2019-01-11T08:27:45.834Z,-0.18
2019-01-11T08:30:17.572Z,-0.20
2019-01-11T08:32:49.262Z,-0.20
2019-01-11T08:35:20.881Z,0.03
2019-01-11T08:37:52.651Z,-0.01
2019-01-11T08:40:24.231Z,0.11
2019-01-11T08:42:55.993Z,0.10
2019-01-11T08:45:27.577Z,0.62
2019-01-11T08:47:59.233Z,0.59
2019-01-11T08:50:31.962Z,0.73
2019-01-11T08:53:03.630Z,0.84
2019-01-11T08:55:35.256Z,1.00
2019-01-11T08:58:06.837Z,1.22
2019-01-11T09:00:38.528Z,1.12
2019-01-11T09:03:10.151Z,1.55
2019-01-11T09:05:41.910Z,0.99
2019-01-11T09:08:13.557Z,0.90
2019-01-11T09:10:47.021Z,0.97
2019-01-11T09:13:19.237Z,1.12
2019-01-11T09:15:50.885Z,1.19
2019-01-11T09:18:45.806Z,1.12
2019-01-11T09:21:17.403Z,0.88
2019-01-11T09:23:50.525Z,0.92
2019-01-11T09:26:22.177Z,1.16
2019-01-11T09:28:53.771Z,1.18
2019-01-11T09:31:25.434Z,1.22
2019-01-11T09:33:57.135Z,0.87
2019-01-11T09:36:30.870Z,1.06
2019-01-11T09:39:02.661Z,1.04
2019-01-11T09:41:35.507Z,1.12
2019-01-11T09:48:20.899Z,0.95
2019-01-11T09:50:52.574Z,0.54
2019-01-11T09:53:25.386Z,0.55
2019-01-11T09:55:57.024Z,0.75
2019-01-11T09:58:28.725Z,0.57
2019-01-11T10:01:00.293Z,0.50
2019-01-11T10:03:31.982Z,0.58
2019-01-11T10:06:03.638Z,0.52
2019-01-11T10:08:35.320Z,0.45
2019-01-11T10:11:07.174Z,0.48
2019-01-11T10:13:38.882Z,0.59
2019-01-11T10:16:10.608Z,0.74
2019-01-11T10:18:42.233Z,0.50
2019-01-11T10:21:14.007Z,0.55
2019-01-11T10:23:45.695Z,0.60
2019-01-11T10:26:18.072Z,0.64
2019-01-11T10:28:51.396Z,0.57
2019-01-11T10:31:23.053Z,0.62
2019-01-11T10:33:54.611Z,0.49
2019-01-11T10:36:26.267Z,0.56
2019-01-11T10:38:57.843Z,0.76
2019-01-11T10:41:29.483Z,0.64
2019-01-11T10:44:01.116Z,0.62
2019-01-11T10:46:37.115Z,0.65
2019-01-11T10:49:08.837Z,0.71
2019-01-11T10:51:40.493Z,0.50
2019-01-11T10:54:20.301Z,0.57
2019-01-11T10:56:51.942Z,0.57
2019-01-11T10:59:23.554Z,0.60
2019-01-11T11:01:55.184Z,0.81
2019-01-11T11:04:26.770Z,0.71
2019-01-11T11:06:58.419Z,0.82
2019-01-11T11:09:30.041Z,0.76
2019-01-11T11:12:01.650Z,0.76
2019-01-11T11:14:33.316Z,0.74
2019-01-11T11:17:05.012Z,0.81
2019-01-11T11:19:36.631Z,0.94
2019-01-11T11:22:08.334Z,0.90
2019-01-11T11:24:39.963Z,0.86
2019-01-11T11:27:11.712Z,0.94
2019-01-11T11:29:43.322Z,0.69
2019-01-11T11:32:16.636Z,0.73
2019-01-11T11:34:48.478Z,0.71
2019-01-11T11:37:20.264Z,0.58
2019-01-11T11:39:52.068Z,0.58
2019-01-11T11:42:26.626Z,0.54
2019-01-11T11:44:58.331Z,0.69
2019-01-11T11:47:30.021Z,0.66
2019-01-11T11:50:01.789Z,0.72
2019-01-11T11:52:34.572Z,0.64
2019-01-11T11:55:07.103Z,0.85
2019-01-11T11:57:38.832Z,0.76
2019-01-11T12:00:14.799Z,0.68
2019-01-11T12:02:47.370Z,0.77
2019-01-11T12:05:19.116Z,0.56
2019-01-11T12:07:50.806Z,0.66
2019-01-11T12:10:23.534Z,0.65
2019-01-11T12:12:55.194Z,0.72
2019-01-11T12:15:26.997Z,0.74
2019-01-11T12:17:58.586Z,0.59
2019-01-11T12:20:35.611Z,0.62
2019-01-11T12:23:07.479Z,0.76
2019-01-11T12:25:39.235Z,0.65
2019-01-11T12:28:10.951Z,0.62
2019-01-11T12:30:42.673Z,0.56
2019-01-11T12:33:14.480Z,0.51
2019-01-11T12:35:46.180Z,0.56
2019-01-11T12:38:17.896Z,0.69
2019-01-11T12:40:49.615Z,0.60
2019-01-11T12:43:21.361Z,0.67
2019-01-11T12:45:52.981Z,0.66
2019-01-11T12:48:24.639Z,0.64
2019-01-11T12:50:56.386Z,0.62
2019-01-11T12:53:28.159Z,0.65
2019-01-11T12:56:00.073Z,0.68
2019-01-11T12:58:31.816Z,0.60
2019-01-11T13:01:03.389Z,0.64
2019-01-11T13:03:35.231Z,0.58
2019-01-11T13:06:06.868Z,0.69
2019-01-11T13:08:38.604Z,0.58
2019-01-11T13:11:10.256Z,0.60
2019-01-11T13:13:41.930Z,0.63
2019-01-11T13:16:13.562Z,0.54
2019-01-11T13:18:45.291Z,0.62
2019-01-11T13:21:17.061Z,0.65
2019-01-11T13:23:48.789Z,0.67
2019-01-11T13:26:20.496Z,0.54
2019-01-11T13:28:52.226Z,0.56
2019-01-11T13:31:23.852Z,0.63
2019-01-11T13:33:55.462Z,0.49
2019-01-11T13:36:27.559Z,0.51
2019-01-11T13:38:59.906Z,0.63
2019-01-11T13:41:31.560Z,0.53
2019-01-11T13:44:03.269Z,0.47
2019-01-11T13:46:34.935Z,0.49
2019-01-11T13:49:06.617Z,0.48
2019-01-11T13:51:38.365Z,0.54
2019-01-11T13:54:10.083Z,0.46
2019-01-11T13:56:41.814Z,0.47
2019-01-11T13:59:13.512Z,0.54
2019-01-11T14:01:45.182Z,0.45
2019-01-11T14:04:16.840Z,0.64
2019-01-11T14:06:49.534Z,0.57
2019-01-11T14:09:21.315Z,0.50
2019-01-11T14:11:52.923Z,0.42
2019-01-11T14:14:24.939Z,0.48
2019-01-11T14:16:56.595Z,0.53
2019-01-11T14:19:28.279Z,0.49
2019-01-11T14:21:59.897Z,0.56
2019-01-11T14:24:31.600Z,0.56
2019-01-11T14:27:03.247Z,0.58
2019-01-11T14:29:34.849Z,0.54
2019-01-11T14:32:06.525Z,0.52
2019-01-11T14:34:38.418Z,0.50
2019-01-11T14:37:10.134Z,0.58
2019-01-11T14:39:41.760Z,0.55
2019-01-11T14:42:13.434Z,0.59
2019-01-11T14:44:45.109Z,0.62
2019-01-11T14:47:16.757Z,0.50
2019-01-11T14:49:48.446Z,0.59
2019-01-11T14:52:20.635Z,0.57
2019-01-11T14:54:52.409Z,0.58
2019-01-11T14:57:23.983Z,0.68
2019-01-11T14:59:55.591Z,0.65
2019-01-11T15:02:27.229Z,0.66
2019-01-11T15:04:58.968Z,0.69
2019-01-11T15:07:30.646Z,0.67
2019-01-11T15:10:02.838Z,0.63
2019-01-11T15:12:34.586Z,0.62
2019-01-11T15:15:07.307Z,0.68
2019-01-11T15:17:39.015Z,0.61
2019-01-11T15:20:16.861Z,0.62
2019-01-11T15:22:48.712Z,0.70
2019-01-11T15:25:20.521Z,0.72
2019-01-11T15:27:52.339Z,0.68
2019-01-11T15:30:23.957Z,0.69
2019-01-11T15:32:55.580Z,0.74
2019-01-11T15:35:27.271Z,0.75
2019-01-11T15:37:58.859Z,0.76
2019-01-11T15:40:36.456Z,0.79
2019-01-11T15:43:05.064Z,0.74
2019-01-11T15:45:40.475Z,0.71
2019-01-11T15:48:19.496Z,0.70
2019-01-11T15:50:58.684Z,0.71
2019-01-11T15:53:37.829Z,0.74
2019-01-11T15:56:12.408Z,0.73
2019-01-11T15:58:44.030Z,0.74
2019-01-11T16:01:15.646Z,0.74
2019-01-11T16:03:47.345Z,0.77
2019-01-11T16:06:25.648Z,0.80
2019-01-11T16:10:03.842Z,0.75
2019-01-11T16:13:01.397Z,0.77
2019-01-11T16:16:25.278Z,0.88
2019-01-11T16:18:58.904Z,0.88
2019-01-11T16:21:30.501Z,0.87
2019-01-11T16:24:02.084Z,0.87
2019-01-11T16:26:33.780Z,0.88
2019-01-11T16:29:05.394Z,0.96
2019-01-11T16:31:36.985Z,0.94
2019-01-11T16:34:09.875Z,0.94
2019-01-11T16:36:41.642Z,0.98
2019-01-11T16:39:13.570Z,1.01
2019-01-11T16:41:45.132Z,0.98
2019-01-11T16:44:16.727Z,0.99
2019-01-11T16:46:48.404Z,1.02
2019-01-11T16:49:19.985Z,0.98
2019-01-11T16:51:51.553Z,1.01
2019-01-11T16:54:23.113Z,1.02
2019-01-11T16:56:54.720Z,1.01
2019-01-11T16:59:26.348Z,1.03
2019-01-11T17:01:57.910Z,1.02
2019-01-11T17:04:29.517Z,1.11
2019-01-11T17:07:01.097Z,1.06
2019-01-11T17:09:32.926Z,1.04
2019-01-11T17:12:04.456Z,1.10
2019-01-11T17:14:36.088Z,1.09
2019-01-11T17:17:07.948Z,1.14
2019-01-11T17:19:39.546Z,1.12
2019-01-11T17:22:12.847Z,1.15
2019-01-11T17:24:44.485Z,1.13
2019-01-11T17:27:16.157Z,1.26
2019-01-11T17:29:47.916Z,1.22
2019-01-11T17:32:22.300Z,1.17
2019-01-11T17:34:53.911Z,1.17
2019-01-11T17:37:25.581Z,1.21
2019-01-11T17:39:57.182Z,1.19
2019-01-11T17:42:28.753Z,1.21
2019-01-11T17:45:00.352Z,1.27
2019-01-11T17:47:31.976Z,1.22
2019-01-11T17:50:03.605Z,1.22
2019-01-11T17:52:35.203Z,1.30
2019-01-11T17:55:07.071Z,1.34
2019-01-11T17:57:38.807Z,1.30
2019-01-11T18:00:14.690Z,1.30
2019-01-11T18:02:46.356Z,1.32
2019-01-11T18:05:18.448Z,1.34
2019-01-11T18:07:50.232Z,1.41
2019-01-11T18:10:21.862Z,2.11
2019-01-11T18:12:53.539Z,1.58
2019-01-11T18:15:25.607Z,1.43
2019-01-11T18:18:00.498Z,1.42
2019-01-11T18:20:32.204Z,1.43
2019-01-11T18:23:06.956Z,1.40
2019-01-11T18:25:37.754Z,1.43
2019-01-11T18:28:09.438Z,1.43
2019-01-11T18:30:41.137Z,1.52
2019-01-11T18:33:12.752Z,1.53
2019-01-11T18:35:44.445Z,1.53
2019-01-11T18:38:16.135Z,1.56
2019-01-11T18:40:47.795Z,1.52
2019-01-11T18:43:19.453Z,1.57
2019-01-11T18:45:51.110Z,1.54
2019-01-11T18:48:22.793Z,1.58
2019-01-11T18:50:55.413Z,1.61
2019-01-11T18:53:27.032Z,1.60
2019-01-11T18:56:05.172Z,1.63
2019-01-11T18:58:31.987Z,1.66
2019-01-11T19:01:03.588Z,1.68
2019-01-11T19:03:35.214Z,1.65
2019-01-11T19:06:06.830Z,1.61
2019-01-11T19:08:40.366Z,1.63
2019-01-11T19:11:12.553Z,1.63
2019-01-11T19:13:44.359Z,1.61
2019-01-11T19:16:15.952Z,1.63
2019-01-11T19:18:47.599Z,1.64
2019-01-11T19:21:19.188Z,1.69
2019-01-11T19:23:50.777Z,1.68
2019-01-11T19:26:22.374Z,1.77
2019-01-11T19:28:53.926Z,1.82
2019-01-11T19:31:26.081Z,1.77
2019-01-11T19:33:57.907Z,1.77
2019-01-11T19:36:29.590Z,1.90
2019-01-11T19:39:07.800Z,1.88
2019-01-11T19:41:39.480Z,1.88
2019-01-11T19:44:11.100Z,1.86
2019-01-11T19:46:42.676Z,1.87
2019-01-11T19:49:14.299Z,1.90
2019-01-11T19:51:45.922Z,1.90
2019-01-11T19:54:17.525Z,1.87
2019-01-11T19:56:49.154Z,1.88
2019-01-11T19:59:21.749Z,1.97
2019-01-11T20:01:54.624Z,1.96
2019-01-11T20:04:26.360Z,1.95
2019-01-11T20:06:58.289Z,1.97
2019-01-11T20:09:30.261Z,1.97
2019-01-11T20:12:01.993Z,2.02
2019-01-11T20:14:33.727Z,1.98
2019-01-11T20:17:05.495Z,2.02
2019-01-11T20:19:38.151Z,2.02
2019-01-11T20:22:09.950Z,2.12
2019-01-11T20:24:41.731Z,2.07
2019-01-11T20:27:13.524Z,2.12
2019-01-11T20:29:45.121Z,2.23
2019-01-11T20:32:16.874Z,2.23
2019-01-11T20:34:48.674Z,2.22
2019-01-11T20:37:27.826Z,2.21
2019-01-11T20:39:59.469Z,2.25
2019-01-11T20:42:31.205Z,2.37
2019-01-11T20:45:02.916Z,2.36
2019-01-11T20:47:34.584Z,2.44
2019-01-11T20:50:08.548Z,2.38
2019-01-11T20:52:40.268Z,2.44
2019-01-11T20:55:11.935Z,2.47
2019-01-11T20:57:43.643Z,2.53
2019-01-11T21:00:35.311Z,2.46
2019-01-11T21:03:09.207Z,2.56
2019-01-11T21:05:42.373Z,2.48
2019-01-11T21:08:13.989Z,2.46
2019-01-11T21:10:45.661Z,2.51
2019-01-11T21:13:17.401Z,2.65
2019-01-11T21:15:49.199Z,2.66
2019-01-11T21:18:20.875Z,2.71
2019-01-11T21:20:53.060Z,2.77
2019-01-11T21:23:24.730Z,2.82
2019-01-11T21:25:56.365Z,2.74
2019-01-11T21:28:29.016Z,2.74
2019-01-11T21:31:00.649Z,2.74
2019-01-11T21:33:33.168Z,2.64
2019-01-11T21:36:04.997Z,2.63
2019-01-11T21:38:36.812Z,2.64
2019-01-11T21:41:08.556Z,2.63
2019-01-11T21:43:40.248Z,2.69
2019-01-11T21:46:12.223Z,2.80
2019-01-11T21:48:43.875Z,2.80
2019-01-11T21:51:15.532Z,2.93
2019-01-11T21:53:47.140Z,2.94
2019-01-11T21:56:18.921Z,2.91
2019-01-11T21:58:50.526Z,2.96
2019-01-11T22:01:22.159Z,2.95
2019-01-11T22:03:53.732Z,3.05
2019-01-11T22:06:25.370Z,3.03
2019-01-11T22:08:57.038Z,3.03
2019-01-11T22:11:28.659Z,3.12
2019-01-11T22:14:00.656Z,3.05
2019-01-11T22:16:32.343Z,3.11
2019-01-11T22:19:07.116Z,3.08
2019-01-11T22:21:38.814Z,3.19
2019-01-11T22:24:10.416Z,3.14
2019-01-11T22:26:42.049Z,3.14
2019-01-11T22:29:13.702Z,3.20
2019-01-11T22:31:45.336Z,3.31
2019-01-11T22:34:16.990Z,3.19
2019-01-11T22:36:48.623Z,3.36
2019-01-11T22:39:20.199Z,3.23
2019-01-11T22:41:55.015Z,3.36
2019-01-11T22:44:26.645Z,3.44
2019-01-11T22:46:58.452Z,3.48
2019-01-11T22:49:30.130Z,3.52
2019-01-11T22:52:01.928Z,3.50
2019-01-11T22:54:43.727Z,3.58
2019-01-11T22:57:16.153Z,3.60
2019-01-11T22:59:47.858Z,3.58
2019-01-11T23:02:49.585Z,3.54
2019-01-11T23:05:21.249Z,3.60
2019-01-11T23:08:03.796Z,3.53
2019-01-11T23:11:52.620Z,3.60
2019-01-11T23:14:24.575Z,3.70
2019-01-11T23:21:07.112Z,3.58
2019-01-11T23:23:38.823Z,3.79
2019-01-11T23:26:22.326Z,3.70
2019-01-11T23:36:22.972Z,3.93
2019-01-11T23:39:25.876Z,3.99
2019-01-11T23:42:38.298Z,3.88
2019-01-11T23:45:49.511Z,3.89
2019-01-11T23:51:25.326Z,3.98
2019-01-11T23:53:56.935Z,3.89
2019-01-11T23:56:28.567Z,3.94
2019-01-11T23:59:00.129Z,4.06
